サントメ の空港の天気 - METARとTAF

サントメ国際空港 ( FPST / TMS ) - サントメ・プリンシペ サントメ
飛行場実況気象(Metar)
観測時間10/18 09:00 WAT (10/18 08:00 UTC)
風向・風速西 2m/s
視程10km以上
天気現象
少しの雲 雲底高度 610m
全天の8割程度の雲 雲底高度 910m
気温26℃
湿度89%
気圧1014hPa
METARFPST 180800Z 27004KT 9999 FEW020CB BKN030 26/24 Q1014 NOSIG
過去の天気等 Google飛行場航空写真 Wunderground天気予報

過去48時間のMETAR

飛行場予報(TAF)
データがありません